Time;durP1;ratioP1;P1;durP2;ratioP2;P2;SDS_P1;SDS_P2;PMS_P1;PMS_P2;Temp;Humidity;BMP_temperature;BMP_pressure;BME280_temperature;BME280_humidity;BME280_pressure;Samples;Min_cycle;Max_cycle;Signal;HPM_P1;HPM_P2
2022/05/23 00:01:36;;;;;;;2.30;1.90;;;;;;;10.13;71.30;100261.80;84850;1325;24207;-72
2022/05/23 00:03:43;;;;;;;2.80;1.90;;;;;;;10.12;71.28;100262.20;84863;1325;22622;-72
2022/05/23 00:05:51;;;;;;;2.50;2.30;;;;;;;10.14;71.38;100261.77;84830;1326;22626;-72
2022/05/23 00:07:59;;;;;;;8.70;2.80;;;;;;;10.14;71.48;100262.45;84884;1325;22580;-72
2022/05/23 00:10:09;;;;;;;2.70;1.90;;;;;;;10.15;71.64;100267.84;84898;1328;22641;-72
2022/05/23 00:12:16;;;;;;;2.80;2.40;;;;;;;10.13;71.41;100270.50;84947;1324;24295;-73
2022/05/23 00:14:23;;;;;;;4.30;2.20;;;;;;;10.13;71.58;100268.96;84921;1328;25710;-72
2022/05/23 00:16:34;;;;;;;3.40;2.30;;;;;;;10.11;71.57;100268.88;84909;1324;23136;-72
2022/05/23 00:18:54;;;;;;;3.00;2.70;;;;;;;10.08;71.55;100267.56;84799;1319;22617;-72
2022/05/23 00:21:10;;;;;;;2.70;2.50;;;;;;;10.05;71.66;100269.95;84833;1326;25405;-72
2022/05/23 00:23:33;;;;;;;3.70;2.60;;;;;;;10.04;71.70;100268.26;84826;1329;22606;-72
2022/05/23 00:25:41;;;;;;;4.20;2.60;;;;;;;10.03;71.79;100270.73;84832;1326;22611;-72
2022/05/23 00:27:50;;;;;;;3.70;2.90;;;;;;;10.00;71.93;100271.16;84910;1323;25633;-72
2022/05/23 00:29:57;;;;;;;3.90;2.30;;;;;;;10.00;71.93;100272.38;84842;1329;22573;-72
2022/05/23 00:36:56;;;;;;;3.30;2.70;;;;;;;9.89;71.81;100277.88;84860;1329;22602;-72
2022/05/23 00:39:03;;;;;;;3.80;2.10;;;;;;;9.85;71.96;100277.48;84887;1325;22596;-72
2022/05/23 00:43:58;;;;;;;9.80;3.10;;;;;;;9.74;72.35;100285.38;84860;1326;22661;-72
2022/05/23 00:46:06;;;;;;;2.80;2.10;;;;;;;9.71;72.41;100283.74;84898;1329;24119;-72
2022/05/23 00:48:14;;;;;;;5.00;2.20;;;;;;;9.69;72.57;100281.88;84903;1329;26500;-72
2022/05/23 00:50:22;;;;;;;2.50;2.00;;;;;;;9.70;72.72;100283.42;84863;1327;22585;-72
2022/05/23 00:52:36;;;;;;;6.80;2.20;;;;;;;9.71;72.82;100284.27;84855;1328;22601;-72
2022/05/23 00:54:48;;;;;;;4.40;2.60;;;;;;;9.71;72.91;100278.86;84718;1332;22890;-72
2022/05/23 00:56:55;;;;;;;2.50;2.20;;;;;;;9.72;73.00;100279.38;84872;1327;22592;-72
2022/05/23 00:59:05;;;;;;;4.80;2.40;;;;;;;9.72;73.03;100282.48;84863;1329;22609;-72
2022/05/23 01:01:15;;;;;;;5.50;2.30;;;;;;;9.74;73.21;100281.70;84740;1328;22624;-72
2022/05/23 01:03:23;;;;;;;4.30;2.40;;;;;;;9.75;73.26;100280.45;84887;1327;22595;-72
2022/05/23 01:05:33;;;;;;;2.90;2.30;;;;;;;9.75;73.17;100280.13;84885;1329;22583;-72
2022/05/23 01:07:43;;;;;;;3.90;2.60;;;;;;;9.74;73.23;100280.65;84868;1328;22615;-72
2022/05/23 01:09:53;;;;;;;3.70;2.50;;;;;;;9.74;73.20;100279.77;84855;1328;24399;-72
2022/05/23 01:12:08;;;;;;;5.60;2.60;;;;;;;9.73;73.13;100277.73;84848;1327;22667;-72
2022/05/23 01:14:15;;;;;;;6.00;2.50;;;;;;;9.73;73.38;100282.63;84851;1327;24111;-72
2022/05/23 01:16:23;;;;;;;5.50;2.60;;;;;;;9.71;73.42;100279.71;84883;1329;22727;-72
2022/05/23 01:18:31;;;;;;;6.80;2.40;;;;;;;9.71;73.53;100280.60;84853;1327;22930;-72
2022/05/23 01:20:46;;;;;;;4.40;2.90;;;;;;;9.71;73.42;100282.35;84875;1328;25466;-72
2022/05/23 01:23:00;;;;;;;5.40;2.60;;;;;;;9.72;73.52;100285.64;84915;1328;22606;-72
2022/05/23 01:25:34;;;;;;;4.10;2.70;;;;;;;9.72;73.64;100288.95;84903;1328;22614;-72
2022/05/23 01:28:56;;;;;;;3.90;2.70;;;;;;;9.71;73.70;100293.49;84832;1326;22618;-72
2022/05/23 01:31:15;;;;;;;4.20;2.70;;;;;;;9.69;73.73;100296.84;84561;1335;24284;-70
2022/05/23 01:33:23;;;;;;;4.20;2.90;;;;;;;9.69;73.73;100298.41;84826;1329;26048;-71
2022/05/23 01:35:32;;;;;;;5.00;2.80;;;;;;;9.68;73.89;100297.59;84844;1326;22832;-73
2022/05/23 01:37:40;;;;;;;2.30;1.70;;;;;;;9.69;74.01;100294.61;84820;1329;22603;-73
2022/05/23 01:39:47;;;;;;;3.40;2.40;;;;;;;9.71;74.10;100295.41;84842;1326;23589;-73
2022/05/23 01:41:55;;;;;;;5.40;2.30;;;;;;;9.72;74.09;100295.20;84823;1327;22939;-72
2022/05/23 01:44:02;;;;;;;5.40;2.60;;;;;;;9.74;74.22;100294.26;84804;1321;22714;-72
2022/05/23 01:46:10;;;;;;;3.80;2.30;;;;;;;9.74;74.21;100292.35;84823;1329;22645;-72
2022/05/23 01:48:17;;;;;;;4.60;2.70;;;;;;;9.75;74.24;100295.09;84806;1329;22699;-72
2022/05/23 01:50:25;;;;;;;4.30;2.70;;;;;;;9.74;74.35;100291.98;84797;1327;22604;-72
2022/05/23 01:52:32;;;;;;;3.60;2.50;;;;;;;9.72;74.35;100292.58;84852;1318;22630;-72
2022/05/23 01:54:40;;;;;;;5.70;2.40;;;;;;;9.69;74.35;100287.81;84788;1327;22599;-72
2022/05/23 01:56:47;;;;;;;2.60;2.30;;;;;;;9.68;74.50;100291.16;84834;1329;25425;-72
2022/05/23 02:01:20;;;;;;;5.70;2.70;;;;;;;9.70;74.66;100294.73;84829;1327;22625;-72
2022/05/23 02:03:28;;;;;;;6.50;3.90;;;;;;;9.71;74.87;100296.11;84820;1326;22813;-72
2022/05/23 02:05:52;;;;;;;3.70;2.80;;;;;;;9.72;74.88;100289.63;84843;1329;25581;-73
2022/05/23 02:08:01;;;;;;;3.90;2.50;;;;;;;9.74;74.92;100289.89;84868;1327;22606;-72
2022/05/23 02:10:13;;;;;;;4.10;3.00;;;;;;;9.75;74.88;100289.36;84837;1328;24228;-72
2022/05/23 02:12:26;;;;;;;3.50;2.90;;;;;;;9.74;74.93;100290.95;84811;1326;22587;-72
2022/05/23 02:14:42;;;;;;;3.40;3.10;;;;;;;9.74;74.93;100290.26;84810;1329;23543;-72
2022/05/23 02:16:53;;;;;;;4.80;2.90;;;;;;;9.72;75.01;100294.31;84827;1324;22940;-72
2022/05/23 02:19:03;;;;;;;4.60;3.30;;;;;;;9.71;75.09;100295.05;84819;1328;22581;-72
2022/05/23 02:21:11;;;;;;;4.70;2.60;;;;;;;9.70;75.19;100292.30;84828;1327;22678;-72
2022/05/23 02:23:41;;;;;;;6.10;3.30;;;;;;;9.69;75.28;100290.25;84840;1325;22632;-72
2022/05/23 02:25:58;;;;;;;3.50;2.20;;;;;;;9.67;75.19;100289.66;84843;1328;22589;-72
2022/05/23 02:28:09;;;;;;;8.70;3.20;;;;;;;9.66;75.43;100290.55;84835;1322;22972;-72
2022/05/23 02:30:17;;;;;;;6.90;3.10;;;;;;;9.67;75.44;100294.67;84856;1322;22857;-72
2022/05/23 02:32:27;;;;;;;3.00;2.70;;;;;;;9.69;75.46;100295.64;84785;1327;22570;-72
2022/05/23 02:34:44;;;;;;;4.90;2.90;;;;;;;9.70;75.42;100296.31;84831;1326;24182;-72
2022/05/23 02:36:54;;;;;;;4.60;4.00;;;;;;;9.69;75.48;100298.58;84824;1329;22599;-72
2022/05/23 02:39:14;;;;;;;5.70;3.00;;;;;;;9.70;75.59;100299.27;84811;1326;22769;-72
2022/05/23 02:41:22;;;;;;;5.40;3.10;;;;;;;9.72;75.59;100296.42;84832;1327;22720;-72
2022/05/23 02:43:48;;;;;;;5.20;4.20;;;;;;;9.71;75.50;100296.45;84797;1329;26650;-72
2022/05/23 02:46:17;;;;;;;7.30;5.00;;;;;;;9.68;75.47;100291.52;84815;1329;22858;-72
2022/05/23 02:48:33;;;;;;;5.00;3.50;;;;;;;9.66;75.86;100291.58;84820;1326;27130;-72
2022/05/23 02:50:50;;;;;;;6.10;4.40;;;;;;;9.65;75.69;100293.52;84844;1327;22600;-72
2022/05/23 02:52:57;;;;;;;4.00;2.50;;;;;;;9.65;75.81;100295.45;84793;1327;22599;-72
2022/05/23 02:55:06;;;;;;;4.70;3.10;;;;;;;9.66;75.86;100298.89;84676;1327;23927;-72
2022/05/23 02:57:16;;;;;;;7.20;2.40;;;;;;;9.66;75.79;100295.08;84735;1327;22608;-72
2022/05/23 02:59:25;;;;;;;4.00;2.80;;;;;;;9.66;75.70;100295.95;84811;1327;22713;-73
2022/05/23 03:01:33;;;;;;;3.50;3.00;;;;;;;9.65;75.86;100294.59;84832;1329;23895;-72
2022/05/23 03:03:41;;;;;;;4.90;2.50;;;;;;;9.65;76.05;100291.09;84817;1318;24363;-73
2022/05/23 03:06:26;;;;;;;4.30;2.80;;;;;;;9.66;76.14;100291.77;84848;1326;23080;-73
2022/05/23 03:09:20;;;;;;;4.20;2.50;;;;;;;9.64;76.23;100290.24;84800;1329;23950;-73
2022/05/23 03:15:33;;;;;;;4.90;2.10;;;;;;;9.64;76.57;100290.94;84524;1328;22638;-73
2022/05/23 03:29:35;;;;;;;3.80;2.30;;;;;;;9.78;76.48;100286.59;84848;1329;22587;-73
2022/05/23 03:31:49;;;;;;;4.30;2.70;;;;;;;9.82;76.54;100287.17;84847;1329;22675;-73
2022/05/23 03:34:17;;;;;;;8.10;2.40;;;;;;;9.84;76.28;100289.88;84862;1325;24274;-73
2022/05/23 03:36:51;;;;;;;5.70;2.70;;;;;;;9.87;76.31;100288.23;84562;1335;24147;-73
2022/05/23 03:39:28;;;;;;;5.90;2.60;;;;;;;9.91;76.45;100288.77;84560;1335;22671;-73
2022/05/23 03:41:49;;;;;;;10.80;3.80;;;;;;;9.96;76.51;100298.85;84560;1333;22617;-73
2022/05/23 03:44:17;;;;;;;6.60;3.40;;;;;;;10.01;76.44;100300.09;84548;1331;22634;-72
2022/05/23 03:46:48;;;;;;;3.70;2.40;;;;;;;10.03;76.29;100298.77;84503;1329;25291;-72
2022/05/23 03:48:59;;;;;;;7.40;3.50;;;;;;;10.07;76.31;100294.98;84515;1328;22980;-72
2022/05/23 03:51:12;;;;;;;8.30;3.10;;;;;;;10.09;76.43;100293.84;84600;1330;22582;-72
2022/05/23 03:53:23;;;;;;;3.10;2.70;;;;;;;10.14;76.38;100288.95;84829;1330;22610;-72
2022/05/23 03:55:46;;;;;;;5.00;2.70;;;;;;;10.19;76.54;100290.34;84798;1327;24046;-72
2022/05/23 03:58:28;;;;;;;6.60;3.10;;;;;;;10.25;76.16;100288.56;84831;1328;25293;-72
2022/05/23 04:01:05;;;;;;;;;;;;;;;;;;;;;
2022/05/23 04:03:25;;;;;;;5.30;3.30;;;;;;;10.38;76.10;100292.63;84559;1332;22585;-72
2022/05/23 04:05:46;;;;;;;3.60;3.00;;;;;;;10.45;75.97;100293.20;84803;1324;22639;-72
2022/05/23 04:08:01;;;;;;;5.50;3.40;;;;;;;10.52;75.84;100299.92;84859;1325;23955;-72
2022/05/23 04:10:17;;;;;;;4.30;2.50;;;;;;;10.57;75.63;100299.21;84813;1327;23968;-72
2022/05/23 04:12:44;;;;;;;5.50;3.60;;;;;;;10.63;75.57;100301.58;84834;1326;23302;-72
2022/05/23 04:17:27;;;;;;;4.90;3.00;;;;;;;10.76;75.36;100310.84;84842;1325;23876;-73
2022/05/23 04:19:53;;;;;;;2.80;2.40;;;;;;;10.79;74.79;100312.81;84845;1325;22847;-70
2022/05/23 04:22:52;;;;;;;3.10;2.70;;;;;;;10.80;74.87;100312.61;84588;1329;22728;-70
2022/05/23 04:25:20;;;;;;;5.70;3.00;;;;;;;10.85;74.78;100311.54;84778;1328;22577;-70
2022/05/23 04:27:43;;;;;;;3.60;2.90;;;;;;;10.90;74.78;100309.79;84714;1326;22595;-72
2022/05/23 04:36:35;;;;;;;;;;;;;;;;;;;;;
2022/05/23 04:39:27;;;;;;;4.20;3.10;;;;;;;11.03;73.96;100308.20;84840;1329;22693;-71
2022/05/23 04:42:08;;;;;;;5.60;3.20;;;;;;;11.05;74.05;100302.85;84852;1325;22777;-71
2022/05/23 04:45:42;;;;;;;;;;;;;;;;;;;;;
2022/05/23 04:54:46;;;;;;;6.80;2.90;;;;;;;11.47;73.57;100300.59;84506;1328;22693;-72
2022/05/23 05:00:40;;;;;;;4.40;3.80;;;;;;;11.73;72.61;100298.41;84800;1324;24249;-72
2022/05/23 05:02:51;;;;;;;4.60;2.90;;;;;;;11.78;72.40;100295.90;84769;1325;22691;-72
2022/05/23 05:04:58;;;;;;;8.10;3.60;;;;;;;11.84;72.10;100294.45;84807;1328;25433;-72
2022/05/23 05:07:30;;;;;;;5.50;3.10;;;;;;;11.88;71.80;100296.54;84672;1332;24273;-72
2022/05/23 05:10:38;;;;;;;5.00;2.80;;;;;;;11.95;71.64;100298.36;84789;1330;22737;-72
2022/05/23 05:16:23;;;;;;;4.50;2.90;;;;;;;12.19;71.12;100296.73;84551;1332;22591;-72
2022/05/23 05:18:30;;;;;;;4.30;3.00;;;;;;;12.33;70.85;100294.83;84536;1333;22863;-72
2022/05/23 05:20:38;;;;;;;7.10;3.40;;;;;;;12.49;70.48;100296.39;84717;1330;22638;-72
2022/05/23 05:22:47;;;;;;;6.30;3.70;;;;;;;12.63;70.08;100298.69;84761;1327;22555;-72
2022/05/23 05:25:21;;;;;;;4.80;3.50;;;;;;;12.83;70.10;100305.08;84778;1330;22631;-72
2022/05/23 05:28:13;;;;;;;5.00;3.20;;;;;;;13.14;69.96;100301.27;84791;1328;22635;-72
2022/05/23 05:30:30;;;;;;;7.30;3.10;;;;;;;13.52;68.68;100302.02;84817;1328;24261;-71
2022/05/23 05:32:47;;;;;;;4.70;3.30;;;;;;;13.77;68.16;100302.48;84808;1330;22614;-71
2022/05/23 05:34:56;;;;;;;4.10;3.00;;;;;;;13.97;67.42;100303.86;84780;1328;22580;-71
2022/05/23 05:37:08;;;;;;;3.70;3.00;;;;;;;14.10;66.06;100299.52;84788;1329;22596;-71
2022/05/23 05:39:18;;;;;;;4.80;3.00;;;;;;;14.29;66.24;100302.15;84835;1324;22608;-71
2022/05/23 05:41:30;;;;;;;3.50;2.70;;;;;;;14.52;65.26;100295.15;84801;1328;22581;-71
2022/05/23 05:43:40;;;;;;;4.20;2.90;;;;;;;14.76;64.74;100297.11;84834;1328;22596;-71
2022/05/23 05:45:48;;;;;;;;;;;;;;;14.99;63.71;100301.75;84817;1328;22632;-71
2022/05/23 05:47:56;;;;;;;4.00;3.60;;;;;;;15.15;63.01;100299.95;84823;1328;25689;-71
2022/05/23 05:50:07;;;;;;;7.80;2.90;;;;;;;15.50;62.75;100296.34;84825;1322;22659;-71
2022/05/23 05:52:14;;;;;;;4.10;3.00;;;;;;;15.84;61.38;100298.17;84836;1325;22640;-71
2022/05/23 05:54:25;;;;;;;4.50;3.10;;;;;;;16.09;60.48;100296.44;84843;1326;22617;-71
2022/05/23 05:56:33;;;;;;;3.60;2.80;;;;;;;16.29;59.08;100295.92;84819;1318;23230;-71
2022/05/23 05:58:41;;;;;;;3.80;2.90;;;;;;;16.41;58.14;100291.48;84850;1322;25663;-71
2022/05/23 06:00:48;;;;;;;5.20;3.00;;;;;;;16.47;56.89;100289.85;84837;1326;24243;-71
2022/05/23 06:02:56;;;;;;;4.20;2.70;;;;;;;16.56;57.01;100292.09;84801;1325;27196;-72
2022/05/23 06:05:03;;;;;;;2.80;2.50;;;;;;;16.74;57.11;100295.88;84811;1327;22599;-72
2022/05/23 06:12:02;;;;;;;5.20;2.90;;;;;;;17.75;54.46;100296.21;84860;1323;24305;-70
2022/05/23 06:14:09;;;;;;;4.90;2.40;;;;;;;18.05;53.03;100299.41;84795;1325;22697;-70
2022/05/23 06:16:17;;;;;;;5.30;2.40;;;;;;;18.34;52.12;100300.15;84796;1326;22793;-70
2022/05/23 06:18:24;;;;;;;7.10;3.00;;;;;;;18.49;50.78;100297.67;84824;1327;22631;-69
2022/05/23 06:20:32;;;;;;;6.70;2.50;;;;;;;18.59;50.22;100296.98;84827;1329;22617;-70
2022/05/23 06:22:39;;;;;;;3.30;2.40;;;;;;;18.69;50.34;100298.23;84833;1329;22586;-70
2022/05/23 06:24:49;;;;;;;5.90;2.40;;;;;;;18.97;49.88;100296.31;84784;1327;22623;-70
2022/05/23 06:26:56;;;;;;;3.00;2.60;;;;;;;19.41;49.11;100291.06;84801;1327;22613;-70
2022/05/23 06:29:03;;;;;;;3.80;2.00;;;;;;;19.75;48.20;100293.05;84819;1327;22580;-70
2022/05/23 06:31:15;;;;;;;6.90;2.70;;;;;;;20.03;47.02;100295.52;84792;1327;25279;-71
2022/05/23 06:33:22;;;;;;;3.30;2.70;;;;;;;20.11;46.56;100295.41;84819;1325;22607;-71
2022/05/23 06:35:30;;;;;;;4.30;2.30;;;;;;;20.44;46.94;100294.52;84851;1328;22585;-70
2022/05/23 06:37:41;;;;;;;3.50;2.00;;;;;;;20.86;45.65;100297.19;84840;1326;22624;-71
2022/05/23 06:39:49;;;;;;;3.30;2.30;;;;;;;21.15;44.88;100292.98;84830;1327;22570;-71
2022/05/23 06:41:56;;;;;;;2.40;2.00;;;;;;;21.91;44.11;100295.27;84828;1327;22602;-71
2022/05/23 06:44:04;;;;;;;5.90;2.50;;;;;;;22.48;42.81;100300.38;84797;1326;22740;-71
2022/05/23 06:46:14;;;;;;;6.30;2.20;;;;;;;22.76;41.75;100298.41;84796;1326;25525;-71
2022/05/23 06:48:22;;;;;;;4.80;2.40;;;;;;;23.00;40.89;100302.11;84812;1326;25368;-71
2022/05/23 06:50:30;;;;;;;3.00;2.20;;;;;;;23.15;40.29;100305.52;84819;1327;22593;-71
2022/05/23 06:52:37;;;;;;;4.10;2.00;;;;;;;23.16;39.49;100311.16;84786;1327;25370;-71
2022/05/23 06:54:45;;;;;;;3.10;2.30;;;;;;;23.03;38.97;100310.22;84787;1326;25464;-71
2022/05/23 06:56:52;;;;;;;3.50;2.30;;;;;;;23.36;39.17;100302.42;84801;1328;24207;-71
2022/05/23 06:59:00;;;;;;;6.10;2.60;;;;;;;23.39;38.63;100301.21;84816;1329;25518;-71
2022/05/23 07:01:08;;;;;;;4.40;2.40;;;;;;;23.26;37.94;100302.42;84813;1325;22713;-71
2022/05/23 07:03:15;;;;;;;4.00;2.80;;;;;;;23.26;37.62;100296.02;84794;1328;22613;-71
2022/05/23 07:12:41;;;;;;;5.50;2.40;;;;;;;25.95;35.10;100292.79;84783;1326;22618;-71
2022/05/23 07:14:48;;;;;;;2.60;2.10;;;;;;;26.79;34.75;100295.05;84811;1326;22629;-71
2022/05/23 07:16:56;;;;;;;6.80;5.10;;;;;;;27.52;33.21;100294.89;84792;1326;22661;-71
2022/05/23 07:19:04;;;;;;;4.00;2.10;;;;;;;27.45;32.25;100305.40;84797;1324;22693;-71
2022/05/23 07:21:12;;;;;;;5.20;1.90;;;;;;;27.35;31.89;100305.54;84805;1329;22607;-71
2022/05/23 07:23:21;;;;;;;2.70;2.10;;;;;;;27.38;30.92;100305.55;84810;1329;22595;-71
2022/05/23 07:25:29;;;;;;;7.00;2.40;;;;;;;27.66;30.76;100300.45;84806;1328;26681;-71
2022/05/23 07:27:36;;;;;;;3.00;1.90;;;;;;;28.20;30.24;100299.83;84795;1327;22792;-71
2022/05/23 07:29:44;;;;;;;5.70;2.60;;;;;;;28.63;29.24;100303.63;84803;1324;23214;-71
2022/05/23 07:31:51;;;;;;;4.40;1.90;;;;;;;29.12;28.54;100302.29;84780;1326;22609;-72
2022/05/23 07:33:59;;;;;;;4.10;1.80;;;;;;;29.58;28.64;100300.64;84812;1322;22643;-72
2022/05/23 07:36:07;;;;;;;2.30;1.70;;;;;;;29.93;27.29;100301.48;84803;1321;22763;-72
2022/05/23 07:38:15;;;;;;;2.40;1.90;;;;;;;30.16;27.40;100295.60;84804;1328;22573;-72
2022/05/23 07:40:22;;;;;;;2.10;1.90;;;;;;;30.45;26.49;100295.05;84793;1324;22595;-72
2022/05/23 07:42:31;;;;;;;2.10;1.70;;;;;;;30.74;26.20;100295.79;84767;1330;22923;-72
2022/05/23 07:44:39;;;;;;;2.20;1.80;;;;;;;31.04;25.44;100293.38;84806;1330;24061;-72
2022/05/23 07:46:46;;;;;;;2.20;1.90;;;;;;;31.25;25.93;100295.42;84802;1328;25979;-72
2022/05/23 07:48:57;;;;;;;4.00;1.70;;;;;;;31.41;25.83;100294.92;84775;1328;24092;-72
2022/05/23 07:51:05;;;;;;;2.70;1.80;;;;;;;31.85;25.57;100291.63;84770;1330;22601;-72
2022/05/23 08:00:33;;;;;;;3.90;1.70;;;;;;;32.93;23.60;100283.40;84769;1327;22780;-72
2022/05/23 08:02:41;;;;;;;2.40;1.40;;;;;;;32.84;23.12;100286.36;84664;1330;22687;-72
2022/05/23 08:04:49;;;;;;;1.90;1.50;;;;;;;32.91;23.50;100284.76;84776;1326;22631;-72
2022/05/23 08:06:57;;;;;;;3.80;1.60;;;;;;;33.13;23.19;100283.96;84793;1324;22727;-72
2022/05/23 08:09:04;;;;;;;1.70;1.60;;;;;;;33.28;22.06;100282.50;84799;1327;22708;-73
2022/05/23 08:11:13;;;;;;;4.80;1.80;;;;;;;33.08;21.36;100280.48;84806;1327;22614;-73
2022/05/23 08:13:20;;;;;;;3.90;1.70;;;;;;;32.79;21.77;100286.34;84807;1330;24363;-73
2022/05/23 08:15:34;;;;;;;6.70;1.90;;;;;;;32.75;21.84;100284.00;84783;1326;22807;-73
2022/05/23 08:17:44;;;;;;;2.30;1.60;;;;;;;32.89;21.87;100290.13;84776;1327;22662;-74
2022/05/23 08:19:52;;;;;;;1.70;1.50;;;;;;;32.53;21.69;100287.30;84800;1328;25508;-74
2022/05/23 08:22:00;;;;;;;2.00;1.20;;;;;;;32.16;22.16;100282.14;84781;1325;22622;-74
2022/05/23 08:24:08;;;;;;;3.40;1.60;;;;;;;32.01;22.52;100278.58;84784;1324;22743;-74
2022/05/23 08:26:16;;;;;;;2.40;1.00;;;;;;;32.15;22.11;100281.98;84758;1330;22686;-74
2022/05/23 08:28:29;;;;;;;4.50;1.20;;;;;;;32.30;22.43;100281.25;84768;1327;22596;-74
2022/05/23 08:30:39;;;;;;;1.80;1.30;;;;;;;32.51;22.09;100275.09;84758;1327;22607;-74
2022/05/23 08:32:46;;;;;;;1.70;1.40;;;;;;;32.81;22.36;100275.33;84775;1327;22591;-74
2022/05/23 08:34:54;;;;;;;2.40;1.30;;;;;;;33.06;21.48;100276.24;84788;1321;22597;-75
2022/05/23 08:37:04;;;;;;;1.20;1.10;;;;;;;33.07;20.78;100276.48;84762;1325;22739;-75
2022/05/23 08:39:14;;;;;;;4.80;1.40;;;;;;;32.95;20.60;100278.13;84789;1327;22669;-74
2022/05/23 08:41:24;;;;;;;2.50;1.10;;;;;;;32.83;20.64;100277.69;84810;1329;25319;-73
2022/05/23 08:43:38;;;;;;;3.30;2.10;;;;;;;32.49;20.58;100273.79;84798;1326;22591;-73
2022/05/23 08:49:35;;;;;;;5.80;2.10;;;;;;;32.15;21.34;100278.64;84836;1328;22653;-73
2022/05/23 08:51:45;;;;;;;2.90;1.10;;;;;;;32.25;20.62;100277.30;84833;1328;22604;-73
2022/05/23 08:53:57;;;;;;;4.00;1.30;;;;;;;32.27;21.34;100279.30;84800;1324;22619;-73
2022/05/23 08:56:12;;;;;;;1.80;1.20;;;;;;;32.33;20.56;100279.05;84823;1326;24356;-73
2022/05/23 08:58:23;;;;;;;3.60;1.20;;;;;;;32.39;20.31;100277.27;84795;1327;22724;-73
2022/05/23 09:00:38;;;;;;;1.40;1.20;;;;;;;32.54;20.62;100282.02;84804;1329;22584;-73
2022/05/23 09:02:49;;;;;;;2.80;1.40;;;;;;;32.69;20.60;100279.06;84809;1326;22601;-73
2022/05/23 09:05:02;;;;;;;2.10;1.00;;;;;;;32.93;20.12;100273.30;84809;1325;22584;-73
2022/05/23 09:07:10;;;;;;;1.40;1.20;;;;;;;32.96;20.03;100276.67;84793;1327;22590;-73
2022/05/23 09:09:18;;;;;;;1.20;1.10;;;;;;;32.73;19.99;100276.45;84815;1325;22565;-73
2022/05/23 09:11:37;;;;;;;2.30;1.10;;;;;;;32.38;20.34;100272.00;84800;1329;22594;-74
2022/05/23 09:13:45;;;;;;;2.80;1.30;;;;;;;32.14;20.82;100269.67;84771;1327;22754;-74
2022/05/23 09:15:54;;;;;;;6.20;1.30;;;;;;;31.97;20.72;100274.77;84837;1327;24857;-73
2022/05/23 09:18:01;;;;;;;;;;;;;;;31.71;20.80;100271.08;84799;1329;22610;-73
2022/05/23 09:20:14;;;;;;;1.10;1.00;;;;;;;31.18;21.90;100274.60;84790;1327;23110;-73
2022/05/23 09:22:30;;;;;;;1.30;1.10;;;;;;;30.91;22.47;100277.09;84818;1326;22588;-72
2022/05/23 09:24:41;;;;;;;1.60;1.10;;;;;;;30.47;22.24;100273.39;84802;1328;25334;-71
2022/05/23 09:26:49;;;;;;;2.40;1.10;;;;;;;30.01;22.37;100268.80;84796;1329;22710;-72
2022/05/23 09:28:56;;;;;;;2.40;1.10;;;;;;;29.67;22.64;100266.61;84802;1329;22617;-72
2022/05/23 09:31:08;;;;;;;2.00;1.30;;;;;;;29.31;23.08;100263.91;84789;1327;24420;-72
2022/05/23 09:33:17;;;;;;;3.40;1.10;;;;;;;28.98;23.48;100263.91;84800;1329;26625;-73
2022/05/23 09:35:26;;;;;;;1.60;1.40;;;;;;;28.52;24.03;100261.13;84804;1327;22587;-71
2022/05/23 09:37:39;;;;;;;3.50;1.10;;;;;;;28.15;24.31;100260.11;84786;1328;22607;-72
2022/05/23 09:39:54;;;;;;;3.10;1.20;;;;;;;27.65;24.48;100254.91;84800;1327;22614;-72
2022/05/23 09:49:30;;;;;;;1.60;1.20;;;;;;;27.06;26.59;100242.42;84796;1325;22612;-72
2022/05/23 09:51:54;;;;;;;3.80;1.50;;;;;;;27.19;26.74;100242.17;84808;1318;22582;-72
2022/05/23 09:54:04;;;;;;;3.10;1.60;;;;;;;27.18;26.68;100244.52;84807;1327;22795;-73
2022/05/23 09:56:32;;;;;;;1.80;1.20;;;;;;;27.08;26.63;100248.07;84753;1329;22647;-73
2022/05/23 09:58:39;;;;;;;2.70;1.20;;;;;;;26.89;26.32;100247.71;84806;1322;24386;-70
2022/05/23 10:01:01;;;;;;;1.50;1.10;;;;;;;26.85;26.56;100245.03;84795;1327;22730;-71
2022/05/23 10:03:14;;;;;;;1.10;1.00;;;;;;;26.68;25.96;100242.59;84756;1328;22596;-71
2022/05/23 10:05:28;;;;;;;1.80;1.20;;;;;;;26.50;27.09;100241.14;84799;1327;25265;-71
2022/05/23 10:07:37;;;;;;;5.90;1.80;;;;;;;26.57;27.67;100244.18;84814;1325;22589;-71
2022/05/23 10:09:44;;;;;;;;;;;;;;;26.75;26.92;100242.54;84794;1328;22565;-72
2022/05/23 10:11:57;;;;;;;2.40;1.60;;;;;;;26.67;26.92;100240.23;84795;1329;22583;-72
2022/05/23 10:14:06;;;;;;;2.70;1.20;;;;;;;26.36;27.35;100241.69;84787;1327;22607;-71
2022/05/23 10:16:19;;;;;;;2.90;1.50;;;;;;;25.91;26.73;100240.73;84791;1326;22948;-71
2022/05/23 10:18:30;;;;;;;3.60;1.30;;;;;;;25.34;27.49;100239.31;84796;1322;22580;-71
2022/05/23 10:20:43;;;;;;;2.60;1.00;;;;;;;24.92;28.36;100235.46;84774;1329;25312;-71
2022/05/23 10:23:04;;;;;;;2.90;1.20;;;;;;;24.52;29.15;100235.38;84775;1323;22782;-72
2022/05/23 10:25:13;;;;;;;2.90;1.10;;;;;;;24.24;30.04;100239.69;84781;1329;25400;-72
2022/05/23 10:27:35;;;;;;;2.90;1.20;;;;;;;24.29;30.78;100239.02;84797;1327;25625;-72
2022/05/23 10:29:52;;;;;;;1.80;1.10;;;;;;;24.49;29.94;100238.73;84805;1329;22598;-72
2022/05/23 10:32:08;;;;;;;2.30;1.10;;;;;;;24.60;29.64;100238.38;84780;1323;22627;-72
2022/05/23 10:34:37;;;;;;;1.20;1.10;;;;;;;24.70;28.62;100234.09;84772;1327;22708;-72
2022/05/23 10:36:46;;;;;;;3.30;1.50;;;;;;;24.71;29.11;100234.86;84810;1329;25346;-72
2022/05/23 10:44:09;;;;;;;2.70;1.10;;;;;;;24.48;30.29;100229.89;84795;1321;22667;-72
2022/05/23 10:46:19;;;;;;;2.40;1.40;;;;;;;24.72;30.66;100226.46;84750;1330;22598;-72
2022/05/23 10:48:45;;;;;;;1.40;1.30;;;;;;;24.99;30.15;100221.52;84779;1325;22602;-72
2022/05/23 10:50:56;;;;;;;5.50;1.70;;;;;;;25.23;30.07;100216.35;84782;1327;22658;-72
2022/05/23 10:53:18;;;;;;;3.40;1.20;;;;;;;25.35;29.60;100216.70;84785;1328;22636;-72
2022/05/23 10:55:36;;;;;;;2.40;1.50;;;;;;;25.26;29.91;100219.39;84801;1327;22587;-72
2022/05/23 10:57:59;;;;;;;1.70;1.20;;;;;;;24.88;28.33;100213.61;84798;1328;22800;-72
2022/05/23 11:00:13;;;;;;;3.10;1.30;;;;;;;24.59;28.17;100212.55;84789;1326;24290;-72
2022/05/23 11:02:31;;;;;;;2.70;1.30;;;;;;;24.52;29.17;100206.63;84745;1327;22603;-72
2022/05/23 11:04:54;;;;;;;1.70;1.40;;;;;;;24.73;30.35;100204.23;84771;1327;22698;-70
2022/05/23 11:07:22;;;;;;;1.80;1.20;;;;;;;24.92;30.26;100201.00;84793;1322;25608;-71
2022/05/23 11:09:37;;;;;;;6.10;1.40;;;;;;;25.09;30.22;100204.34;84724;1328;25448;-71
2022/05/23 11:11:56;;;;;;;2.10;1.20;;;;;;;25.25;30.26;100202.58;84788;1327;24371;-72
2022/05/23 11:14:10;;;;;;;;;;;;;;;25.14;29.89;100201.48;84803;1329;22588;-72
2022/05/23 11:16:24;;;;;;;1.20;1.00;;;;;;;24.99;30.25;100201.56;84806;1322;22553;-72
2022/05/23 11:18:54;;;;;;;2.80;1.10;;;;;;;24.81;30.07;100196.67;84791;1326;22601;-71
2022/05/23 11:21:08;;;;;;;1.90;1.20;;;;;;;24.48;30.18;100195.10;84783;1327;22610;-72
2022/05/23 11:23:27;;;;;;;1.40;1.00;;;;;;;24.24;30.25;100196.91;84777;1318;22586;-72
2022/05/23 11:25:37;;;;;;;1.40;1.10;;;;;;;24.03;30.83;100201.24;84789;1327;22600;-72
2022/05/23 11:35:12;;;;;;;1.70;1.10;;;;;;;23.44;31.77;100198.73;84666;1329;24233;-71
2022/05/23 11:39:50;;;;;;;2.10;1.20;;;;;;;23.39;32.08;100196.73;84769;1327;22593;-72
2022/05/23 11:41:58;;;;;;;2.00;1.30;;;;;;;23.43;31.83;100198.11;84782;1322;22690;-72
2022/05/23 11:44:31;;;;;;;1.10;1.00;;;;;;;23.40;31.61;100194.79;84777;1329;24483;-72
2022/05/23 11:47:17;;;;;;;2.70;1.60;;;;;;;23.27;31.54;100192.89;84771;1322;25608;-72
2022/05/23 11:49:46;;;;;;;4.20;1.10;;;;;;;23.32;31.89;100192.56;84796;1329;22643;-72
2022/05/23 11:52:06;;;;;;;2.40;1.20;;;;;;;23.35;32.16;100193.20;84777;1324;22695;-71
2022/05/23 11:54:37;;;;;;;1.50;1.30;;;;;;;23.43;32.02;100192.78;84769;1328;22597;-70
2022/05/23 11:57:11;;;;;;;1.70;1.30;;;;;;;23.47;31.06;100191.00;84762;1322;22599;-71
2022/05/23 12:00:23;;;;;;;2.90;1.20;;;;;;;23.32;30.92;100186.38;84795;1322;22597;-71
2022/05/23 12:02:33;;;;;;;1.70;1.20;;;;;;;23.28;30.96;100185.98;84744;1327;22589;-71
2022/05/23 12:04:39;;;;;;;;;;;;;;;23.24;31.10;100179.88;84728;1327;22573;-71
2022/05/23 12:06:46;;;;;;;1.30;1.20;;;;;;;23.19;31.79;100177.55;84722;1327;22595;-70